createdAt,value
2022-10-16T00:01:24.856Z,11.68
2022-10-16T00:03:52.978Z,11.57
2022-10-16T00:06:22.307Z,11.60
2022-10-16T00:08:50.479Z,11.59
2022-10-16T00:11:21.490Z,11.69
2022-10-16T00:13:51.693Z,11.72
2022-10-16T00:16:19.871Z,11.69
2022-10-16T00:18:47.812Z,11.69
2022-10-16T00:21:18.603Z,11.75
2022-10-16T00:24:07.539Z,11.82
2022-10-16T00:26:36.937Z,11.81
2022-10-16T00:29:06.208Z,11.78
2022-10-16T00:31:33.944Z,11.78
2022-10-16T00:34:01.842Z,11.81
2022-10-16T00:36:29.425Z,11.80
2022-10-16T00:41:34.136Z,11.82
2022-10-16T00:44:05.158Z,11.90
2022-10-16T00:46:43.591Z,12.04
2022-10-16T00:49:18.607Z,12.01
2022-10-16T00:51:51.032Z,11.91
2022-10-16T00:54:26.632Z,11.97
2022-10-16T00:56:56.046Z,11.89
2022-10-16T00:59:29.874Z,11.96
2022-10-16T01:01:57.577Z,12.27
2022-10-16T01:04:26.641Z,12.03
2022-10-16T01:07:25.981Z,12.06
2022-10-16T01:10:12.193Z,11.95
2022-10-16T01:12:48.759Z,12.10
2022-10-16T01:15:22.000Z,11.93
2022-10-16T01:18:03.687Z,12.08
2022-10-16T01:20:35.695Z,11.95
2022-10-16T01:23:12.401Z,11.98
2022-10-16T01:26:07.327Z,12.09
2022-10-16T01:29:01.935Z,12.15
2022-10-16T01:31:34.270Z,12.03
2022-10-16T01:34:11.368Z,12.04
2022-10-16T01:36:43.541Z,12.03
2022-10-16T01:39:12.494Z,12.02
2022-10-16T01:41:45.863Z,12.03
2022-10-16T01:44:24.132Z,12.16
2022-10-16T01:46:54.168Z,12.07
2022-10-16T01:49:23.476Z,12.07
2022-10-16T01:51:55.244Z,12.00
2022-10-16T01:54:27.212Z,11.95
2022-10-16T01:56:56.493Z,11.94
2022-10-16T01:59:27.000Z,11.94
2022-10-16T02:02:01.080Z,11.98
2022-10-16T02:04:34.299Z,11.99
2022-10-16T02:07:02.458Z,11.95
2022-10-16T02:09:32.038Z,11.95
2022-10-16T02:12:03.802Z,11.98
2022-10-16T02:14:32.023Z,11.92
2022-10-16T02:16:59.629Z,11.88
2022-10-16T02:19:27.231Z,11.85
2022-10-16T02:22:06.966Z,12.04
2022-10-16T02:24:44.722Z,12.02
2022-10-16T02:27:18.971Z,11.97
2022-10-16T02:29:59.961Z,12.01
2022-10-16T02:32:32.909Z,12.00
2022-10-16T02:35:01.673Z,11.96
2022-10-16T02:37:31.148Z,11.88
2022-10-16T02:40:00.204Z,11.91
2022-10-16T02:42:35.499Z,12.03
2022-10-16T02:45:03.651Z,11.90
2022-10-16T02:47:31.169Z,11.90
2022-10-16T02:49:58.665Z,11.86
2022-10-16T02:52:26.144Z,11.85
2022-10-16T02:54:53.689Z,11.85
2022-10-16T02:57:21.143Z,11.86
2022-10-16T02:59:48.618Z,11.85
2022-10-16T03:02:16.017Z,11.83
2022-10-16T03:04:43.526Z,11.82
2022-10-16T03:07:10.952Z,11.82
2022-10-16T03:09:38.368Z,11.83
2022-10-16T03:12:05.998Z,11.86
2022-10-16T03:14:33.409Z,11.83
2022-10-16T03:17:00.865Z,11.87
2022-10-16T03:19:28.235Z,11.87
2022-10-16T03:21:55.658Z,11.86
2022-10-16T03:24:23.055Z,11.87
2022-10-16T03:26:50.536Z,11.88
2022-10-16T03:29:18.008Z,11.86
2022-10-16T03:31:45.522Z,11.88
2022-10-16T03:34:12.868Z,11.87
2022-10-16T03:36:43.162Z,11.99
2022-10-16T03:39:10.739Z,11.91
2022-10-16T03:41:38.113Z,11.93
2022-10-16T03:44:05.579Z,11.93
2022-10-16T03:46:33.138Z,11.92
2022-10-16T03:49:00.446Z,11.99
2022-10-16T03:51:27.855Z,12.02
2022-10-16T03:53:55.327Z,12.00
2022-10-16T03:56:22.768Z,12.08
2022-10-16T03:58:50.159Z,12.08
2022-10-16T04:01:17.668Z,12.11
2022-10-16T04:03:45.273Z,12.12
2022-10-16T04:06:12.653Z,12.14
2022-10-16T04:08:40.472Z,12.20
2022-10-16T04:11:07.844Z,12.16
2022-10-16T04:13:35.262Z,12.22
2022-10-16T04:16:02.686Z,12.23
2022-10-16T04:18:30.352Z,12.23
2022-10-16T04:20:57.759Z,12.21
2022-10-16T04:23:25.327Z,12.19
2022-10-16T04:25:52.753Z,12.19
2022-10-16T04:28:20.268Z,12.20
2022-10-16T04:30:47.719Z,12.22
2022-10-16T04:33:15.208Z,12.25
2022-10-16T04:35:42.720Z,12.27
2022-10-16T04:38:10.103Z,12.31
2022-10-16T04:40:37.884Z,12.32
2022-10-16T04:43:06.877Z,12.37
2022-10-16T04:45:34.335Z,12.41
2022-10-16T04:48:01.838Z,12.48
2022-10-16T04:50:29.337Z,12.53
2022-10-16T04:53:08.340Z,12.64
2022-10-16T04:55:36.003Z,12.68
2022-10-16T04:58:03.406Z,12.63
2022-10-16T05:00:30.798Z,12.61
2022-10-16T05:03:00.814Z,12.73
2022-10-16T05:05:29.084Z,12.77
2022-10-16T05:07:56.591Z,12.81
2022-10-16T05:10:23.911Z,12.80
2022-10-16T05:12:52.581Z,12.83
2022-10-16T05:15:19.964Z,12.85
2022-10-16T05:17:47.399Z,12.96
2022-10-16T05:20:14.996Z,13.02
2022-10-16T05:22:42.348Z,13.08
2022-10-16T05:25:09.796Z,13.19
2022-10-16T05:27:37.180Z,13.49
2022-10-16T05:30:07.426Z,13.66
2022-10-16T05:32:37.251Z,13.81
2022-10-16T05:35:07.488Z,13.92
2022-10-16T05:37:37.516Z,13.97
2022-10-16T05:40:06.187Z,14.06
2022-10-16T05:42:33.539Z,14.03
2022-10-16T05:45:01.038Z,14.06
2022-10-16T05:47:28.981Z,14.03
2022-10-16T05:49:56.721Z,14.03
2022-10-16T05:52:24.079Z,13.99
2022-10-16T05:54:51.566Z,13.99
2022-10-16T05:57:19.170Z,13.98
2022-10-16T05:59:47.053Z,14.00
2022-10-16T06:02:15.183Z,14.00
2022-10-16T06:04:42.654Z,14.00
2022-10-16T06:07:10.016Z,13.96
2022-10-16T06:09:37.426Z,13.95
2022-10-16T06:12:06.321Z,13.97
2022-10-16T06:14:33.917Z,13.83
2022-10-16T06:17:01.262Z,13.79
2022-10-16T06:19:28.750Z,13.75
2022-10-16T06:21:56.149Z,13.73
2022-10-16T06:24:23.663Z,13.69
2022-10-16T06:26:51.070Z,13.66
2022-10-16T06:29:18.506Z,13.66
2022-10-16T06:31:45.948Z,13.61
2022-10-16T06:34:13.383Z,13.53
2022-10-16T06:36:41.327Z,13.50
2022-10-16T06:39:08.944Z,13.48
2022-10-16T06:41:36.577Z,13.46
2022-10-16T06:44:16.452Z,13.47
2022-10-16T06:46:43.915Z,13.49
2022-10-16T06:49:11.230Z,13.49
2022-10-16T06:51:43.381Z,13.49
2022-10-16T06:54:11.346Z,13.49
2022-10-16T06:56:39.152Z,13.48
2022-10-16T06:59:06.509Z,13.49
2022-10-16T07:01:34.483Z,13.52
2022-10-16T07:04:03.451Z,13.54
2022-10-16T07:06:33.697Z,13.58
2022-10-16T07:09:04.804Z,13.60
2022-10-16T07:11:32.174Z,13.57
2022-10-16T07:13:59.779Z,13.58
2022-10-16T07:16:29.714Z,13.60
2022-10-16T07:19:00.640Z,13.62
2022-10-16T07:21:38.167Z,13.69
2022-10-16T07:24:08.564Z,13.66
2022-10-16T07:26:37.889Z,13.64
2022-10-16T07:29:05.322Z,13.58
2022-10-16T07:31:32.927Z,13.61
2022-10-16T07:34:01.607Z,13.65
2022-10-16T07:36:29.158Z,13.60
2022-10-16T07:38:58.998Z,13.53
2022-10-16T07:41:28.441Z,13.52
2022-10-16T07:43:57.724Z,13.51
2022-10-16T07:46:25.226Z,13.51
2022-10-16T07:48:52.920Z,13.50
2022-10-16T07:51:23.072Z,13.53
2022-10-16T07:53:51.053Z,13.48
2022-10-16T07:56:19.684Z,13.48
2022-10-16T07:58:47.758Z,13.38
2022-10-16T08:01:18.086Z,13.43
2022-10-16T08:03:47.760Z,13.43
2022-10-16T08:06:15.938Z,13.38
2022-10-16T08:08:43.526Z,13.37
2022-10-16T08:11:11.101Z,13.28
2022-10-16T08:13:38.985Z,13.32
2022-10-16T08:16:09.020Z,13.29
2022-10-16T08:18:39.460Z,13.29
2022-10-16T08:21:07.943Z,13.33
2022-10-16T08:23:35.839Z,13.25
2022-10-16T08:26:06.791Z,13.26
2022-10-16T08:28:34.671Z,13.19
2022-10-16T08:33:49.658Z,13.18
2022-10-16T08:36:17.859Z,13.17
2022-10-16T08:38:45.340Z,13.15
2022-10-16T08:41:49.730Z,13.36
2022-10-16T08:44:50.685Z,13.33
2022-10-16T08:47:26.542Z,13.20
2022-10-16T08:50:01.966Z,13.13
2022-10-16T08:52:34.158Z,13.00
2022-10-16T08:55:01.774Z,12.96
2022-10-16T08:57:32.708Z,12.94
2022-10-16T09:00:14.539Z,13.11
2022-10-16T09:02:54.951Z,13.10
2022-10-16T09:05:50.202Z,13.08
2022-10-16T09:08:38.591Z,13.07
2022-10-16T09:11:15.552Z,12.90
2022-10-16T09:14:02.057Z,12.96
2022-10-16T09:16:38.210Z,12.97
2022-10-16T09:19:30.321Z,13.03
2022-10-16T09:22:00.774Z,12.82
2022-10-16T09:24:29.373Z,12.75
2022-10-16T09:26:57.161Z,12.72
2022-10-16T09:29:26.409Z,12.70
2022-10-16T09:31:56.138Z,12.72
2022-10-16T09:34:28.648Z,12.78
2022-10-16T09:36:58.727Z,12.72
2022-10-16T09:39:26.457Z,12.66
2022-10-16T09:41:54.409Z,12.65
2022-10-16T09:44:29.611Z,12.74
2022-10-16T09:47:06.070Z,12.76
2022-10-16T09:49:33.590Z,12.63
2022-10-16T09:52:14.707Z,12.80
2022-10-16T09:54:56.740Z,12.76
2022-10-16T09:57:26.757Z,12.59
2022-10-16T09:59:59.475Z,12.51
2022-10-16T10:02:31.568Z,12.65
2022-10-16T10:04:59.028Z,12.51
2022-10-16T10:07:29.393Z,12.63
2022-10-16T10:09:58.617Z,12.65
2022-10-16T10:12:29.182Z,12.63
2022-10-16T10:14:59.259Z,12.55
2022-10-16T10:17:28.872Z,12.56
2022-10-16T10:20:24.189Z,12.66
2022-10-16T10:22:53.483Z,12.42
2022-10-16T10:25:40.432Z,12.49
2022-10-16T10:28:28.511Z,12.62
2022-10-16T10:31:04.893Z,12.34
2022-10-16T10:33:39.324Z,12.34
2022-10-16T10:36:15.699Z,12.47
2022-10-16T10:38:58.311Z,12.57
2022-10-16T10:41:32.039Z,12.49
2022-10-16T10:44:24.472Z,12.75
2022-10-16T10:46:55.795Z,12.47
2022-10-16T10:49:50.146Z,12.58
2022-10-16T10:52:45.554Z,12.58
2022-10-16T10:55:51.300Z,12.54
2022-10-16T10:58:38.103Z,12.43
2022-10-16T11:01:34.430Z,12.36
2022-10-16T11:04:31.022Z,12.25
2022-10-16T11:07:18.565Z,12.43
2022-10-16T11:09:50.931Z,12.30
2022-10-16T11:12:27.420Z,12.27
2022-10-16T11:15:12.801Z,12.26
2022-10-16T11:17:43.706Z,12.13
2022-10-16T11:21:02.301Z,12.35
2022-10-16T11:23:47.986Z,12.23
2022-10-16T11:26:23.574Z,12.21
2022-10-16T11:28:53.925Z,12.11
2022-10-16T11:31:41.539Z,12.15
2022-10-16T11:34:49.230Z,12.31
2022-10-16T11:37:24.676Z,12.13
2022-10-16T11:39:55.739Z,12.11
2022-10-16T11:42:38.381Z,12.15
2022-10-16T11:45:32.334Z,12.16
2022-10-16T11:48:16.118Z,12.15
2022-10-16T11:50:47.950Z,12.10
2022-10-16T11:53:25.727Z,12.05
2022-10-16T11:55:53.332Z,11.92
2022-10-16T11:58:30.540Z,12.04
2022-10-16T12:01:05.030Z,11.98
2022-10-16T12:03:41.851Z,11.94
2022-10-16T12:06:21.679Z,12.03
2022-10-16T12:08:49.667Z,11.84
2022-10-16T12:11:28.973Z,12.02
2022-10-16T12:14:22.210Z,12.04
2022-10-16T12:16:54.112Z,11.90
2022-10-16T12:19:23.099Z,11.82
2022-10-16T12:21:52.566Z,11.83
2022-10-16T12:24:26.616Z,11.85
2022-10-16T12:26:54.273Z,11.74
2022-10-16T12:29:41.008Z,11.92
2022-10-16T12:32:45.675Z,11.96
2022-10-16T12:35:23.814Z,11.90
2022-10-16T12:37:53.194Z,11.73
2022-10-16T12:40:23.560Z,11.75
2022-10-16T12:42:50.947Z,11.65
2022-10-16T12:45:33.356Z,11.77
2022-10-16T12:48:03.424Z,11.66
2022-10-16T12:50:37.760Z,11.68
2022-10-16T12:53:20.281Z,11.71
2022-10-16T12:56:10.147Z,11.73
2022-10-16T12:58:56.163Z,11.68
2022-10-16T13:01:29.702Z,11.61
2022-10-16T13:04:20.973Z,11.54
2022-10-16T13:06:48.348Z,11.39
2022-10-16T13:09:41.640Z,11.57
2022-10-16T13:12:24.259Z,11.45
2022-10-16T13:15:19.236Z,11.52
2022-10-16T13:17:58.569Z,11.30
2022-10-16T13:20:37.495Z,11.46
2022-10-16T13:23:26.271Z,11.22
2022-10-16T13:26:55.329Z,11.44
2022-10-16T13:29:23.710Z,11.11
2022-10-16T13:31:51.492Z,11.02
2022-10-16T13:34:23.564Z,10.86
2022-10-16T13:36:53.972Z,10.91
2022-10-16T13:39:31.099Z,10.92
2022-10-16T13:42:04.882Z,10.80
2022-10-16T13:44:47.318Z,10.79
2022-10-16T13:47:22.056Z,10.70
2022-10-16T13:50:02.003Z,10.74
2022-10-16T13:52:31.210Z,10.46
2022-10-16T13:55:01.767Z,10.41
2022-10-16T13:57:31.357Z,10.36
2022-10-16T14:00:00.532Z,10.24
2022-10-16T14:02:40.653Z,10.44
2022-10-16T14:05:11.887Z,10.28
2022-10-16T14:07:39.924Z,10.13
2022-10-16T14:10:21.674Z,10.15
2022-10-16T14:12:57.424Z,10.26
2022-10-16T14:15:24.998Z,10.07
2022-10-16T14:17:54.431Z,10.10
2022-10-16T14:20:27.754Z,10.09
2022-10-16T14:23:04.605Z,10.12
2022-10-16T14:25:34.142Z,10.04
2022-10-16T14:28:23.866Z,10.18
2022-10-16T14:30:54.477Z,10.05
2022-10-16T14:33:31.130Z,10.16
2022-10-16T14:36:04.427Z,10.08
2022-10-16T14:38:32.854Z,9.94
2022-10-16T14:41:01.435Z,9.93
2022-10-16T14:43:40.554Z,10.08
2022-10-16T14:46:15.328Z,10.13
2022-10-16T14:48:50.124Z,10.12
2022-10-16T14:51:21.759Z,10.14
2022-10-16T14:53:50.002Z,10.06
2022-10-16T14:56:21.816Z,10.16
2022-10-16T14:58:51.223Z,10.12
2022-10-16T15:01:19.328Z,10.14
2022-10-16T15:03:47.014Z,10.20
2022-10-16T15:06:16.331Z,10.22
2022-10-16T15:08:43.965Z,10.19
2022-10-16T15:11:19.815Z,10.32
2022-10-16T15:13:47.790Z,10.23
2022-10-16T15:16:17.590Z,10.32
2022-10-16T15:18:46.670Z,10.29
2022-10-16T15:21:34.303Z,10.47
2022-10-16T15:24:04.764Z,10.30
2022-10-16T15:26:37.302Z,10.27
2022-10-16T15:29:05.977Z,10.19
2022-10-16T15:31:35.449Z,10.12
2022-10-16T15:34:05.588Z,10.07
2022-10-16T15:36:38.275Z,10.05
2022-10-16T15:39:13.754Z,9.98
2022-10-16T15:41:42.714Z,9.92
2022-10-16T15:44:10.456Z,9.87
2022-10-16T15:46:38.573Z,9.77
2022-10-16T15:49:06.119Z,9.75
2022-10-16T15:51:34.380Z,9.71
2022-10-16T15:54:03.183Z,9.69
2022-10-16T15:56:31.834Z,9.71
2022-10-16T15:59:00.146Z,9.63
2022-10-16T16:01:28.411Z,9.65
2022-10-16T16:03:56.799Z,9.57
2022-10-16T16:06:25.143Z,9.60
2022-10-16T16:08:53.011Z,9.52
2022-10-16T16:11:24.898Z,9.55
2022-10-16T16:13:52.270Z,9.54
2022-10-16T16:16:21.352Z,9.52
2022-10-16T16:18:50.575Z,9.53
2022-10-16T16:21:18.574Z,9.49
2022-10-16T16:23:45.987Z,9.48
2022-10-16T16:26:28.769Z,9.52
2022-10-16T16:28:58.023Z,9.52
2022-10-16T16:31:27.961Z,9.56
2022-10-16T16:33:56.136Z,9.61
2022-10-16T16:38:57.667Z,9.65
2022-10-16T16:41:27.673Z,9.72
2022-10-16T16:43:57.204Z,9.69
2022-10-16T16:46:24.680Z,9.71
2022-10-16T16:48:54.131Z,9.74
2022-10-16T16:51:21.636Z,9.76
2022-10-16T16:53:51.776Z,9.76
2022-10-16T16:56:21.234Z,9.71
2022-10-16T16:58:51.152Z,9.74
2022-10-16T17:01:21.010Z,9.67
2022-10-16T17:03:51.627Z,9.74
2022-10-16T17:06:25.607Z,9.73
2022-10-16T17:08:53.009Z,10.12
2022-10-16T17:11:23.804Z,9.84
2022-10-16T17:13:56.827Z,9.78
2022-10-16T17:16:29.619Z,9.74
2022-10-16T17:19:01.361Z,9.65
2022-10-16T17:21:30.804Z,9.54
2022-10-16T17:24:01.576Z,9.47
2022-10-16T17:26:29.419Z,9.45
2022-10-16T17:28:59.055Z,9.47
2022-10-16T17:31:34.414Z,9.49
2022-10-16T17:34:03.998Z,9.45
2022-10-16T17:36:34.305Z,9.47
2022-10-16T17:39:04.947Z,9.45
2022-10-16T17:41:33.952Z,9.46
2022-10-16T17:44:01.665Z,9.45
2022-10-16T17:46:30.204Z,9.34
2022-10-16T17:48:57.782Z,9.48
2022-10-16T17:51:30.415Z,9.51
2022-10-16T17:54:01.340Z,9.62
2022-10-16T17:56:30.756Z,9.62
2022-10-16T17:59:00.696Z,9.65
2022-10-16T18:01:32.075Z,9.67
2022-10-16T18:04:03.444Z,9.66
2022-10-16T18:06:33.776Z,9.63
2022-10-16T18:09:02.286Z,9.63
2022-10-16T18:11:30.183Z,9.64
2022-10-16T18:13:59.444Z,9.64
2022-10-16T18:16:28.897Z,9.71
2022-10-16T18:19:00.108Z,9.66
2022-10-16T18:21:28.890Z,9.67
2022-10-16T18:23:58.460Z,9.69
2022-10-16T18:26:26.690Z,9.70
2022-10-16T18:28:56.214Z,9.71
2022-10-16T18:31:26.558Z,9.67
2022-10-16T18:33:56.415Z,9.68
2022-10-16T18:36:29.862Z,9.75
2022-10-16T18:38:58.336Z,9.74
2022-10-16T18:41:27.915Z,9.71
2022-10-16T18:43:56.595Z,9.73
2022-10-16T18:46:25.914Z,9.71
2022-10-16T18:48:56.694Z,9.76
2022-10-16T18:51:29.743Z,9.76
2022-10-16T18:54:03.175Z,9.80
2022-10-16T18:56:32.239Z,9.78
2022-10-16T18:59:02.659Z,9.78
2022-10-16T19:01:31.891Z,9.81
2022-10-16T19:04:02.191Z,9.72
2022-10-16T19:06:30.473Z,9.80
2022-10-16T19:08:57.969Z,9.84
2022-10-16T19:11:26.918Z,9.93
2022-10-16T19:13:57.435Z,9.86
2022-10-16T19:16:29.227Z,9.99
2022-10-16T19:19:00.044Z,10.00
2022-10-16T19:21:29.762Z,10.01
2022-10-16T19:23:59.450Z,10.04
2022-10-16T19:26:28.402Z,10.05
2022-10-16T19:28:58.644Z,10.03
2022-10-16T19:31:27.729Z,10.08
2022-10-16T19:33:57.886Z,10.08
2022-10-16T19:36:33.403Z,10.18
2022-10-16T19:39:06.095Z,10.10
2022-10-16T19:41:34.279Z,10.09
2022-10-16T19:44:07.803Z,10.17
2022-10-16T19:46:37.672Z,10.15
2022-10-16T19:49:11.128Z,10.16
2022-10-16T19:51:39.290Z,10.19
2022-10-16T19:54:09.307Z,10.16
2022-10-16T19:56:37.718Z,10.10
2022-10-16T19:59:07.771Z,10.11
2022-10-16T20:01:35.558Z,10.11
2022-10-16T20:04:03.485Z,10.09
2022-10-16T20:06:31.106Z,10.12
2022-10-16T20:08:58.788Z,10.15
2022-10-16T20:11:29.490Z,10.23
2022-10-16T20:13:57.850Z,10.18
2022-10-16T20:16:26.723Z,10.16
2022-10-16T20:18:54.271Z,10.13
2022-10-16T20:21:25.005Z,10.20
2022-10-16T20:23:53.006Z,10.11
2022-10-16T20:26:22.544Z,10.11
2022-10-16T20:28:50.507Z,10.07
2022-10-16T20:31:22.915Z,10.16
2022-10-16T20:33:51.760Z,10.15
2022-10-16T20:36:21.195Z,10.16
2022-10-16T20:38:48.697Z,10.10
2022-10-16T20:41:17.587Z,10.15
2022-10-16T20:43:48.383Z,10.15
2022-10-16T20:46:19.411Z,10.16
2022-10-16T20:48:47.360Z,10.16
2022-10-16T20:51:21.340Z,10.25
2022-10-16T20:53:53.254Z,10.21
2022-10-16T20:56:20.871Z,10.14
2022-10-16T20:58:48.483Z,10.18
2022-10-16T21:01:18.246Z,10.17
2022-10-16T21:03:51.459Z,10.25
2022-10-16T21:06:18.986Z,10.18
2022-10-16T21:08:46.831Z,10.18
2022-10-16T21:11:17.587Z,10.19
2022-10-16T21:13:45.281Z,10.19
2022-10-16T21:16:15.301Z,10.24
2022-10-16T21:18:44.717Z,10.20
2022-10-16T21:21:21.472Z,10.29
2022-10-16T21:23:50.618Z,10.24
2022-10-16T21:26:21.259Z,10.30
2022-10-16T21:28:48.705Z,10.24
2022-10-16T21:31:19.336Z,10.28
2022-10-16T21:33:47.963Z,10.25
2022-10-16T21:36:21.519Z,10.34
2022-10-16T21:38:49.388Z,10.27
2022-10-16T21:41:26.559Z,10.38
2022-10-16T21:43:55.584Z,10.27
2022-10-16T21:46:25.394Z,10.27
2022-10-16T21:48:56.987Z,10.30
2022-10-16T21:51:29.802Z,10.32
2022-10-16T21:53:57.301Z,10.23
2022-10-16T21:56:24.722Z,10.24
2022-10-16T21:58:52.584Z,10.27
2022-10-16T22:01:22.717Z,10.31
2022-10-16T22:03:50.592Z,10.24
2022-10-16T22:08:51.779Z,10.32
2022-10-16T22:11:23.168Z,10.32
2022-10-16T22:13:54.253Z,10.26
2022-10-16T22:16:27.324Z,10.35
2022-10-16T22:18:56.618Z,10.24
2022-10-16T22:21:24.875Z,10.31
2022-10-16T22:23:52.406Z,10.23
2022-10-16T22:26:21.568Z,10.28
2022-10-16T22:28:48.981Z,10.23
2022-10-16T22:31:16.617Z,10.21
2022-10-16T22:33:45.384Z,10.23
2022-10-16T22:36:15.139Z,10.28
2022-10-16T22:38:42.739Z,10.27
2022-10-16T22:41:12.310Z,10.31
2022-10-16T22:43:43.377Z,10.34
2022-10-16T22:46:14.252Z,10.35
2022-10-16T22:48:42.302Z,10.32
2022-10-16T22:51:14.113Z,10.32
2022-10-16T22:53:43.757Z,10.37
2022-10-16T22:56:11.885Z,10.35
2022-10-16T22:58:39.498Z,10.34
2022-10-16T23:01:38.809Z,10.50
2022-10-16T23:04:07.569Z,10.37
2022-10-16T23:06:35.293Z,10.36
2022-10-16T23:09:03.003Z,10.39
2022-10-16T23:11:31.174Z,10.39
2022-10-16T23:13:58.709Z,10.37
2022-10-16T23:16:26.573Z,10.40
2022-10-16T23:18:54.102Z,10.37
2022-10-16T23:21:24.819Z,10.43
2022-10-16T23:23:53.752Z,10.41
2022-10-16T23:26:27.678Z,10.51
2022-10-16T23:28:59.385Z,10.53
2022-10-16T23:31:28.279Z,10.48
2022-10-16T23:33:59.710Z,10.53
2022-10-16T23:36:27.147Z,10.44
2022-10-16T23:38:55.705Z,10.45
2022-10-16T23:41:23.279Z,10.41
2022-10-16T23:43:51.684Z,10.45
2022-10-16T23:46:19.075Z,10.43
2022-10-16T23:48:46.703Z,10.44
2022-10-16T23:51:14.270Z,10.44
2022-10-16T23:53:41.761Z,10.47
2022-10-16T23:56:09.640Z,10.50
2022-10-16T23:58:37.121Z,10.48
